Northolt Air Base, United Kingdom

7:06 PM BST on May 05, 2015 (GMT +0100)
Ickenham | | Change Station
CLOSE
Current Station
Personal Weather Station
Location: Ickenham, Greater London
Elevation: 141 ft
Nearby Weather Stations

Elev 141 ft 51.57 °N, 0.44 °W | Updated 2 minutes ago

Mostly Cloudy
Mostly Cloudy
55.9 °F
Feels Like 55.9 °F
N
5.0
Wind Variable Wind from SSW
Gusts 7.0 mph

Today
High -- | Low -- °F
--% Chance of Precip.
Yesterday
High -- | Low -- °F
Precip. -- in
5:26 AM 8:31 PM
Full, 97% visible
Pressure 29.53 in
Visibility 6.2 miles
Clouds Few 3500 ft
Mostly Cloudy 6000 ft
Dew Point 43 °F
Humidity 62%
Rainfall 0.00 in
Snow Depth Not available.
UV 0 out of 12
Pollen Not available.
Air Quality Not available.
Flu Activity Not available.
METAR EGWU 051750Z 23019G32KT 9999 FEW035 BKN060 14/06 Q1000 BLU NOSIG

More Conditions Fewer Conditions

Pressure 29.53 in
Visibility 6.2 miles
Clouds Few 3500 ft
Mostly Cloudy 6000 ft
Dew Point 43 °F
Humidity 62%
Rainfall 0.00 in
Snow Depth Not available.
UV 0 out of 12
Pollen Not available.
Air Quality Not available.
Flu Activity Not available.
METAR EGWU 051750Z 23019G32KT 9999 FEW035 BKN060 14/06 Q1000 BLU NOSIG

More Conditions Fewer Conditions

10-Day Weather Forecast

Almanac

Astronomy

May. 05, 2015 Rise Set
Actual Time
Civil Twilight
Nautical Twilight
Astronomical Twilight
Moon
Length of Visible Light
Length of Day
Tomorrow will be .
, % of the Moon is Illuminated

Today's Extremes

Country Highs Country Lows

Community

WunderPhotos

Upload Photos

1,818,951 photos uploaded!

WunderBlogs® & News

Nearby

Air Quality

  Air Quality AQ Index Pollutant
Not available.

Snow Depth

Station Depth Elevation

Earthquake Activity

City Distance Mag. Time & Date
Minimum magnitude displayed is 2.5.

Coastal Water Temperatures

Place Temperature

Stations

Nearby Weather Stations

Station Location Temp. Windchill Dew Point Humidity Wind Precip. Elev Updated Type